createdAt,value
2023-04-16T00:00:56.292Z,94408.00
2023-04-16T00:01:56.400Z,94406.00
2023-04-16T00:02:56.555Z,94406.00
2023-04-16T00:03:56.642Z,94411.00
2023-04-16T00:04:56.463Z,94411.00
2023-04-16T00:05:56.521Z,94410.00
2023-04-16T00:06:56.468Z,94413.00
2023-04-16T00:07:56.480Z,94411.00
2023-04-16T00:08:56.514Z,94413.00
2023-04-16T00:09:56.532Z,94416.00
2023-04-16T00:10:56.580Z,94416.00
2023-04-16T00:11:58.414Z,94418.00
2023-04-16T00:12:56.681Z,94421.00
2023-04-16T00:13:56.670Z,94418.00
2023-04-16T00:14:56.883Z,94416.00
2023-04-16T00:15:56.774Z,94416.00
2023-04-16T00:16:56.838Z,94416.00
2023-04-16T00:17:56.929Z,94418.00
2023-04-16T00:18:56.883Z,94419.00
2023-04-16T00:19:56.935Z,94419.00
2023-04-16T00:20:57.058Z,94418.00
2023-04-16T00:21:57.294Z,94418.00
2023-04-16T00:22:57.087Z,94418.00
2023-04-16T00:23:57.102Z,94418.00
2023-04-16T00:24:57.113Z,94418.00
2023-04-16T00:25:57.185Z,94416.00
2023-04-16T00:26:57.239Z,94416.00
2023-04-16T00:27:57.258Z,94413.00
2023-04-16T00:28:57.273Z,94416.00
2023-04-16T00:29:57.295Z,94416.00
2023-04-16T00:30:57.380Z,94418.00
2023-04-16T00:31:57.412Z,94413.00
2023-04-16T00:32:57.443Z,94416.00
2023-04-16T00:33:57.520Z,94419.00
2023-04-16T00:34:57.549Z,94419.00
2023-04-16T00:35:57.569Z,94419.00
2023-04-16T00:36:57.594Z,94423.00
2023-04-16T00:37:57.607Z,94421.00
2023-04-16T00:38:57.619Z,94423.00
2023-04-16T00:39:57.676Z,94421.00
2023-04-16T00:40:57.679Z,94421.00
2023-04-16T00:41:57.844Z,94421.00
2023-04-16T00:42:57.742Z,94425.00
2023-04-16T00:43:57.776Z,94421.00
2023-04-16T00:44:57.764Z,94425.00
2023-04-16T00:45:57.845Z,94421.00
2023-04-16T00:46:57.838Z,94425.00
2023-04-16T00:47:59.938Z,94429.00
2023-04-16T00:48:58.108Z,94427.00
2023-04-16T00:49:58.094Z,94429.00
2023-04-16T00:50:58.161Z,94431.00
2023-04-16T00:51:58.298Z,94429.00
2023-04-16T00:52:58.203Z,94429.00
2023-04-16T00:53:58.220Z,94429.00
2023-04-16T00:54:58.242Z,94431.00
2023-04-16T00:55:58.277Z,94431.00
2023-04-16T00:56:58.289Z,94433.00
2023-04-16T00:57:58.341Z,94427.00
2023-04-16T00:58:58.378Z,94431.00
2023-04-16T00:59:58.379Z,94427.00
2023-04-16T01:00:58.456Z,94429.00
2023-04-16T01:01:58.640Z,94431.00
2023-04-16T01:02:58.651Z,94429.00
2023-04-16T01:03:58.727Z,94431.00
2023-04-16T01:04:58.673Z,94429.00
2023-04-16T01:05:58.761Z,94431.00
2023-04-16T01:06:58.816Z,94429.00
2023-04-16T01:07:58.848Z,94431.00
2023-04-16T01:08:58.915Z,94429.00
2023-04-16T01:09:58.991Z,94429.00
2023-04-16T01:10:59.018Z,94431.00
2023-04-16T01:11:59.085Z,94429.00
2023-04-16T01:12:59.154Z,94427.00
2023-04-16T01:13:59.230Z,94431.00
2023-04-16T01:14:59.240Z,94431.00
2023-04-16T01:15:59.318Z,94429.00
2023-04-16T01:16:59.330Z,94431.00
2023-04-16T01:17:59.401Z,94431.00
2023-04-16T01:18:59.466Z,94433.00
2023-04-16T01:19:59.483Z,94433.00
2023-04-16T01:20:59.519Z,94431.00
2023-04-16T01:21:59.587Z,94431.00
2023-04-16T01:22:59.586Z,94433.00
2023-04-16T01:23:59.647Z,94435.00
2023-04-16T01:24:59.668Z,94433.00
2023-04-16T01:25:59.802Z,94435.00
2023-04-16T01:26:59.811Z,94431.00
2023-04-16T01:27:59.770Z,94431.00
2023-04-16T01:28:59.873Z,94431.00
2023-04-16T01:29:59.874Z,94431.00
2023-04-16T01:30:59.917Z,94433.00
2023-04-16T01:31:59.950Z,94433.00
2023-04-16T01:33:00.060Z,94433.00
2023-04-16T01:34:00.001Z,94433.00
2023-04-16T01:35:00.025Z,94435.00
2023-04-16T01:36:00.081Z,94435.00
2023-04-16T01:37:00.159Z,94435.00
2023-04-16T01:38:00.164Z,94433.00
2023-04-16T01:39:00.224Z,94437.00
2023-04-16T01:40:00.225Z,94435.00
2023-04-16T01:41:00.296Z,94437.00
2023-04-16T01:42:00.274Z,94439.00
2023-04-16T01:43:00.311Z,94439.00
2023-04-16T01:44:00.313Z,94441.00
2023-04-16T01:45:00.330Z,94445.00
2023-04-16T01:46:00.368Z,94443.00
2023-04-16T01:47:00.466Z,94443.00
2023-04-16T01:48:00.460Z,94445.00
2023-04-16T01:49:00.469Z,94445.00
2023-04-16T01:50:00.448Z,94449.00
2023-04-16T01:51:00.479Z,94445.00
2023-04-16T01:52:00.491Z,94447.00
2023-04-16T01:53:00.500Z,94447.00
2023-04-16T01:54:00.567Z,94453.00
2023-04-16T01:55:00.556Z,94447.00
2023-04-16T01:56:00.576Z,94447.00
2023-04-16T01:57:00.582Z,94451.00
2023-04-16T01:58:00.558Z,94449.00
2023-04-16T01:59:00.576Z,94447.00
2023-04-16T02:00:00.596Z,94447.00
2023-04-16T02:01:00.749Z,94451.00
2023-04-16T02:02:00.740Z,94451.00
2023-04-16T02:03:00.868Z,94449.00
2023-04-16T02:04:00.701Z,94449.00
2023-04-16T02:05:00.640Z,94449.00
2023-04-16T02:06:00.653Z,94451.00
2023-04-16T02:07:00.701Z,94451.00
2023-04-16T02:08:00.736Z,94453.00
2023-04-16T02:09:00.777Z,94453.00
2023-04-16T02:10:00.799Z,94453.00
2023-04-16T02:11:00.790Z,94453.00
2023-04-16T02:12:00.824Z,94455.00
2023-04-16T02:13:00.898Z,94457.00
2023-04-16T02:14:00.875Z,94457.00
2023-04-16T02:15:00.906Z,94457.00
2023-04-16T02:16:00.932Z,94457.00
2023-04-16T02:17:00.946Z,94457.00
2023-04-16T02:18:01.075Z,94457.00
2023-04-16T02:19:01.000Z,94458.00
2023-04-16T02:20:00.969Z,94457.00
2023-04-16T02:21:00.989Z,94460.00
2023-04-16T02:22:00.998Z,94460.00
2023-04-16T02:23:01.010Z,94460.00
2023-04-16T02:24:00.979Z,94460.00
2023-04-16T02:25:01.001Z,94460.00
2023-04-16T02:26:00.983Z,94460.00
2023-04-16T02:27:00.978Z,94458.00
2023-04-16T02:28:01.016Z,94462.00
2023-04-16T02:29:01.017Z,94458.00
2023-04-16T02:30:01.038Z,94462.00
2023-04-16T02:31:01.009Z,94462.00
2023-04-16T02:32:01.101Z,94460.00
2023-04-16T02:33:01.111Z,94460.00
2023-04-16T02:34:00.982Z,94458.00
2023-04-16T02:35:00.995Z,94462.00
2023-04-16T02:36:01.004Z,94460.00
2023-04-16T02:37:00.984Z,94464.00
2023-04-16T02:38:01.032Z,94464.00
2023-04-16T02:39:01.014Z,94460.00
2023-04-16T02:40:01.008Z,94464.00
2023-04-16T02:41:01.027Z,94464.00
2023-04-16T02:42:01.081Z,94466.00
2023-04-16T02:43:01.072Z,94466.00
2023-04-16T02:44:01.055Z,94466.00
2023-04-16T02:45:01.095Z,94466.00
2023-04-16T02:46:01.157Z,94470.00
2023-04-16T02:47:01.195Z,94470.00
2023-04-16T02:48:01.257Z,94468.00
2023-04-16T02:49:01.182Z,94472.00
2023-04-16T02:50:01.190Z,94472.00
2023-04-16T02:51:01.191Z,94470.00
2023-04-16T02:52:01.229Z,94472.00
2023-04-16T02:53:01.280Z,94472.00
2023-04-16T02:54:01.320Z,94474.00
2023-04-16T02:55:01.337Z,94474.00
2023-04-16T02:56:01.317Z,94472.00
2023-04-16T02:57:01.379Z,94474.00
2023-04-16T02:58:01.509Z,94476.00
2023-04-16T02:59:01.433Z,94476.00
2023-04-16T03:00:01.491Z,94474.00
2023-04-16T03:01:01.505Z,94476.00
2023-04-16T03:02:01.567Z,94476.00
2023-04-16T03:03:01.656Z,94474.00
2023-04-16T03:04:01.731Z,94474.00
2023-04-16T03:05:01.580Z,94476.00
2023-04-16T03:06:01.601Z,94478.00
2023-04-16T03:07:01.637Z,94478.00
2023-04-16T03:08:01.690Z,94474.00
2023-04-16T03:09:01.664Z,94478.00
2023-04-16T03:10:01.664Z,94476.00
2023-04-16T03:11:01.678Z,94476.00
2023-04-16T03:12:01.736Z,94480.00
2023-04-16T03:13:01.769Z,94478.00
2023-04-16T03:14:01.775Z,94480.00
2023-04-16T03:15:01.776Z,94480.00
2023-04-16T03:16:01.977Z,94476.00
2023-04-16T03:17:01.893Z,94480.00
2023-04-16T03:18:01.925Z,94480.00
2023-04-16T03:19:01.931Z,94482.00
2023-04-16T03:20:01.956Z,94476.00
2023-04-16T03:21:02.031Z,94480.00
2023-04-16T03:22:02.056Z,94482.00
2023-04-16T03:23:02.019Z,94480.00
2023-04-16T03:24:02.042Z,94480.00
2023-04-16T03:25:02.030Z,94482.00
2023-04-16T03:26:02.047Z,94486.00
2023-04-16T03:27:02.042Z,94486.00
2023-04-16T03:28:02.037Z,94486.00
2023-04-16T03:29:02.046Z,94484.00
2023-04-16T03:30:02.096Z,94484.00
2023-04-16T03:31:02.082Z,94484.00
2023-04-16T03:32:02.072Z,94480.00
2023-04-16T03:33:02.148Z,94480.00
2023-04-16T03:34:02.112Z,94484.00
2023-04-16T03:35:02.137Z,94486.00
2023-04-16T03:36:02.107Z,94488.00
2023-04-16T03:37:02.129Z,94484.00
2023-04-16T03:38:02.115Z,94486.00
2023-04-16T03:39:02.167Z,94484.00
2023-04-16T03:40:02.136Z,94486.00
2023-04-16T03:41:02.142Z,94484.00
2023-04-16T03:42:02.230Z,94486.00
2023-04-16T03:43:02.187Z,94486.00
2023-04-16T03:44:02.353Z,94484.00
2023-04-16T03:45:02.186Z,94484.00
2023-04-16T03:46:02.220Z,94484.00
2023-04-16T03:47:02.256Z,94484.00
2023-04-16T03:48:02.245Z,94486.00
2023-04-16T03:49:02.238Z,94488.00
2023-04-16T03:50:02.272Z,94490.00
2023-04-16T03:51:02.230Z,94490.00
2023-04-16T03:52:02.250Z,94492.00
2023-04-16T03:53:02.303Z,94494.00
2023-04-16T03:54:02.259Z,94494.00
2023-04-16T03:55:02.274Z,94494.00
2023-04-16T03:56:02.256Z,94496.00
2023-04-16T03:57:02.324Z,94496.00
2023-04-16T03:58:02.268Z,94498.00
2023-04-16T03:59:02.329Z,94496.00
2023-04-16T04:00:02.289Z,94496.00
2023-04-16T04:01:02.361Z,94494.00
2023-04-16T04:02:02.444Z,94498.00
2023-04-16T04:03:02.690Z,94498.00
2023-04-16T04:04:02.572Z,94498.00
2023-04-16T04:05:02.626Z,94498.00
2023-04-16T04:06:02.560Z,94500.00
2023-04-16T04:07:02.602Z,94498.00
2023-04-16T04:08:02.636Z,94500.00
2023-04-16T04:09:02.619Z,94502.00
2023-04-16T04:10:02.656Z,94500.00
2023-04-16T04:11:02.638Z,94500.00
2023-04-16T04:12:02.679Z,94505.00
2023-04-16T04:13:02.687Z,94498.00
2023-04-16T04:14:02.656Z,94504.00
2023-04-16T04:15:02.686Z,94507.00
2023-04-16T04:16:02.684Z,94507.00
2023-04-16T04:17:02.686Z,94505.00
2023-04-16T04:18:02.772Z,94507.00
2023-04-16T04:19:02.700Z,94513.00
2023-04-16T04:20:02.738Z,94511.00
2023-04-16T04:21:02.733Z,94513.00
2023-04-16T04:22:02.751Z,94515.00
2023-04-16T04:23:02.779Z,94513.00
2023-04-16T04:24:02.808Z,94513.00
2023-04-16T04:25:02.802Z,94507.00
2023-04-16T04:26:02.776Z,94509.00
2023-04-16T04:27:02.791Z,94509.00
2023-04-16T04:28:02.836Z,94511.00
2023-04-16T04:29:02.862Z,94513.00
2023-04-16T04:30:02.850Z,94515.00
2023-04-16T04:31:02.864Z,94519.00
2023-04-16T04:32:02.973Z,94517.00
2023-04-16T04:33:02.896Z,94519.00
2023-04-16T04:34:02.872Z,94525.00
2023-04-16T04:35:02.893Z,94517.00
2023-04-16T04:36:02.934Z,94519.00
2023-04-16T04:37:02.873Z,94515.00
2023-04-16T04:38:03.004Z,94519.00
2023-04-16T04:39:02.925Z,94519.00
2023-04-16T04:40:02.941Z,94519.00
2023-04-16T04:41:03.031Z,94525.00
2023-04-16T04:42:02.995Z,94523.00
2023-04-16T04:43:03.010Z,94523.00
2023-04-16T04:44:03.017Z,94527.00
2023-04-16T04:45:02.982Z,94527.00
2023-04-16T04:46:03.028Z,94529.00
2023-04-16T04:47:03.001Z,94531.00
2023-04-16T04:48:03.052Z,94531.00
2023-04-16T04:49:03.363Z,94531.00
2023-04-16T04:50:03.006Z,94535.00
2023-04-16T04:51:04.715Z,94537.00
2023-04-16T04:52:03.003Z,94535.00
2023-04-16T04:53:03.010Z,94535.00
2023-04-16T04:54:03.016Z,94537.00
2023-04-16T04:55:03.042Z,94539.00
2023-04-16T04:56:12.490Z,94535.00
2023-04-16T04:57:04.013Z,94541.00
2023-04-16T04:58:03.010Z,94539.00
2023-04-16T04:59:03.068Z,94539.00
2023-04-16T05:00:02.993Z,94539.00
2023-04-16T05:01:02.984Z,94539.00
2023-04-16T05:02:02.996Z,94539.00
2023-04-16T05:03:03.062Z,94541.00
2023-04-16T05:04:03.010Z,94541.00
2023-04-16T05:05:03.105Z,94541.00
2023-04-16T05:06:02.999Z,94539.00
2023-04-16T05:07:02.957Z,94537.00
2023-04-16T05:08:02.938Z,94543.00
2023-04-16T05:09:02.956Z,94539.00
2023-04-16T05:10:02.975Z,94539.00
2023-04-16T05:11:02.929Z,94541.00
2023-04-16T05:12:02.953Z,94543.00
2023-04-16T05:13:02.936Z,94539.00
2023-04-16T05:14:02.934Z,94541.00
2023-04-16T05:15:02.938Z,94543.00
2023-04-16T05:16:03.012Z,94545.00
2023-04-16T05:17:03.078Z,94549.00
2023-04-16T05:18:03.146Z,94547.00
2023-04-16T05:19:03.034Z,94549.00
2023-04-16T05:20:03.126Z,94547.00
2023-04-16T05:21:03.054Z,94551.00
2023-04-16T05:22:03.047Z,94551.00
2023-04-16T05:23:03.076Z,94552.00
2023-04-16T05:24:03.079Z,94554.00
2023-04-16T05:25:03.076Z,94554.00
2023-04-16T05:26:03.298Z,94556.00
2023-04-16T05:27:03.082Z,94554.00
2023-04-16T05:28:03.111Z,94560.00
2023-04-16T05:29:03.081Z,94562.00
2023-04-16T05:30:03.117Z,94562.00
2023-04-16T05:31:03.172Z,94562.00
2023-04-16T05:32:03.207Z,94564.00
2023-04-16T05:33:03.105Z,94564.00
2023-04-16T05:34:03.115Z,94568.00
2023-04-16T05:35:03.120Z,94568.00
2023-04-16T05:36:03.166Z,94568.00
2023-04-16T05:37:03.140Z,94572.00
2023-04-16T05:38:03.148Z,94574.00
2023-04-16T05:39:03.258Z,94574.00
2023-04-16T05:40:03.172Z,94574.00
2023-04-16T05:41:03.154Z,94576.00
2023-04-16T05:42:03.165Z,94576.00
2023-04-16T05:43:03.183Z,94580.00
2023-04-16T05:44:03.192Z,94580.00
2023-04-16T05:45:03.154Z,94582.00
2023-04-16T05:46:03.211Z,94584.00
2023-04-16T05:47:03.161Z,94584.00
2023-04-16T05:48:03.193Z,94582.00
2023-04-16T05:49:03.178Z,94582.00
2023-04-16T05:50:03.144Z,94584.00
2023-04-16T05:51:03.174Z,94584.00
2023-04-16T05:52:03.183Z,94584.00
2023-04-16T05:53:03.150Z,94586.00
2023-04-16T05:54:03.292Z,94588.00
2023-04-16T05:55:03.182Z,94586.00
2023-04-16T05:56:03.198Z,94586.00
2023-04-16T05:57:03.202Z,94584.00
2023-04-16T05:58:03.182Z,94586.00
2023-04-16T05:59:03.225Z,94586.00
2023-04-16T06:00:03.224Z,94588.00
2023-04-16T06:01:03.211Z,94588.00
2023-04-16T06:02:03.293Z,94590.00
2023-04-16T06:03:03.432Z,94590.00
2023-04-16T06:04:03.675Z,94590.00
2023-04-16T06:05:03.269Z,94594.00
2023-04-16T06:06:03.301Z,94594.00
2023-04-16T06:07:03.209Z,94594.00
2023-04-16T06:08:03.238Z,94594.00
2023-04-16T06:09:03.273Z,94594.00
2023-04-16T06:10:03.243Z,94596.00
2023-04-16T06:11:03.399Z,94598.00
2023-04-16T06:12:03.321Z,94601.00
2023-04-16T06:13:03.296Z,94599.00
2023-04-16T06:14:03.331Z,94601.00
2023-04-16T06:15:03.367Z,94601.00
2023-04-16T06:16:03.369Z,94603.00
2023-04-16T06:17:03.313Z,94601.00
2023-04-16T06:18:03.439Z,94603.00
2023-04-16T06:19:03.338Z,94603.00
2023-04-16T06:20:03.359Z,94603.00
2023-04-16T06:21:03.361Z,94603.00
2023-04-16T06:22:03.394Z,94601.00
2023-04-16T06:23:03.400Z,94603.00
2023-04-16T06:24:03.425Z,94605.00
2023-04-16T06:25:03.444Z,94605.00
2023-04-16T06:26:03.428Z,94603.00
2023-04-16T06:27:03.589Z,94603.00
2023-04-16T06:28:03.444Z,94603.00
2023-04-16T06:29:03.456Z,94609.00
2023-04-16T06:30:03.478Z,94607.00
2023-04-16T06:31:03.475Z,94607.00
2023-04-16T06:32:03.519Z,94607.00
2023-04-16T06:33:03.518Z,94607.00
2023-04-16T06:34:03.500Z,94609.00
2023-04-16T06:35:03.536Z,94611.00
2023-04-16T06:36:03.535Z,94611.00
2023-04-16T06:37:03.547Z,94611.00
2023-04-16T06:38:03.701Z,94613.00
2023-04-16T06:39:03.581Z,94611.00
2023-04-16T06:40:03.549Z,94615.00
2023-04-16T06:41:03.536Z,94613.00
2023-04-16T06:42:03.562Z,94611.00
2023-04-16T06:43:03.532Z,94611.00
2023-04-16T06:44:03.535Z,94611.00
2023-04-16T06:45:03.567Z,94609.00
2023-04-16T06:46:03.540Z,94609.00
2023-04-16T06:47:03.658Z,94611.00
2023-04-16T06:48:03.602Z,94611.00
2023-04-16T06:49:03.536Z,94613.00
2023-04-16T06:50:03.550Z,94611.00
2023-04-16T06:51:03.573Z,94611.00
2023-04-16T06:52:05.833Z,94611.00
2023-04-16T06:53:03.646Z,94609.00
2023-04-16T06:54:03.664Z,94609.00
2023-04-16T06:55:03.706Z,94607.00
2023-04-16T06:56:03.704Z,94607.00
2023-04-16T06:57:03.742Z,94609.00
2023-04-16T06:58:03.742Z,94607.00
2023-04-16T06:59:03.770Z,94607.00
2023-04-16T07:00:03.925Z,94609.00
2023-04-16T07:01:03.853Z,94607.00
2023-04-16T07:02:03.767Z,94607.00
2023-04-16T07:03:04.102Z,94607.00
2023-04-16T07:04:04.006Z,94607.00
2023-04-16T07:05:03.804Z,94605.00
2023-04-16T07:06:03.802Z,94607.00
2023-04-16T07:07:03.843Z,94603.00
2023-04-16T07:08:03.815Z,94607.00
2023-04-16T07:09:03.919Z,94607.00
2023-04-16T07:10:03.807Z,94603.00
2023-04-16T07:11:03.834Z,94605.00
2023-04-16T07:12:03.810Z,94605.00
2023-04-16T07:13:03.843Z,94607.00
2023-04-16T07:14:03.948Z,94605.00
2023-04-16T07:15:03.800Z,94605.00
2023-04-16T07:16:03.825Z,94607.00
2023-04-16T07:17:03.834Z,94605.00
2023-04-16T07:18:03.895Z,94609.00
2023-04-16T07:19:03.893Z,94607.00
2023-04-16T07:20:03.856Z,94605.00
2023-04-16T07:21:03.862Z,94609.00
2023-04-16T07:22:03.912Z,94609.00
2023-04-16T07:23:03.892Z,94611.00
2023-04-16T07:24:03.923Z,94607.00
2023-04-16T07:25:03.891Z,94611.00
2023-04-16T07:26:03.897Z,94611.00
2023-04-16T07:27:03.941Z,94611.00
2023-04-16T07:28:03.899Z,94611.00
2023-04-16T07:29:03.904Z,94609.00
2023-04-16T07:30:03.974Z,94611.00
2023-04-16T07:31:03.940Z,94611.00
2023-04-16T07:32:04.039Z,94615.00
2023-04-16T07:33:04.025Z,94615.00
2023-04-16T07:34:03.971Z,94617.00
2023-04-16T07:35:03.976Z,94617.00
2023-04-16T07:36:04.000Z,94619.00
2023-04-16T07:37:04.054Z,94621.00
2023-04-16T07:38:04.053Z,94619.00
2023-04-16T07:39:04.044Z,94621.00
2023-04-16T07:40:04.058Z,94621.00
2023-04-16T07:41:04.135Z,94623.00
2023-04-16T07:42:04.053Z,94625.00
2023-04-16T07:43:04.077Z,94625.00
2023-04-16T07:44:04.069Z,94627.00
2023-04-16T07:45:04.090Z,94627.00
2023-04-16T07:46:04.132Z,94629.00
2023-04-16T07:47:05.564Z,94629.00
2023-04-16T07:48:04.164Z,94623.00
2023-04-16T07:49:04.064Z,94623.00
2023-04-16T07:50:04.096Z,94623.00
2023-04-16T07:51:04.078Z,94621.00
2023-04-16T07:52:04.086Z,94623.00
2023-04-16T07:53:04.095Z,94625.00
2023-04-16T07:54:04.071Z,94627.00
2023-04-16T07:55:04.097Z,94629.00
2023-04-16T07:56:04.073Z,94631.00
2023-04-16T07:57:04.084Z,94631.00
2023-04-16T07:58:04.072Z,94629.00
2023-04-16T07:59:18.501Z,94631.00
2023-04-16T08:00:05.079Z,94629.00
2023-04-16T08:01:04.070Z,94629.00
2023-04-16T08:02:04.128Z,94631.00
2023-04-16T08:03:04.241Z,94631.00
2023-04-16T08:04:04.113Z,94631.00
2023-04-16T08:05:04.045Z,94633.00
2023-04-16T08:06:04.049Z,94633.00
2023-04-16T08:07:04.017Z,94633.00
2023-04-16T08:08:04.028Z,94635.00
2023-04-16T08:09:04.031Z,94637.00
2023-04-16T08:10:04.023Z,94639.00
2023-04-16T08:11:03.989Z,94635.00
2023-04-16T08:12:04.000Z,94641.00
2023-04-16T08:13:03.971Z,94639.00
2023-04-16T08:14:03.996Z,94641.00
2023-04-16T08:15:03.962Z,94643.00
2023-04-16T08:16:04.002Z,94643.00
2023-04-16T08:17:03.988Z,94645.00
2023-04-16T08:18:03.983Z,94645.00
2023-04-16T08:19:03.936Z,94645.00
2023-04-16T08:20:03.949Z,94654.00
2023-04-16T08:21:03.931Z,94656.00
2023-04-16T08:22:03.919Z,94654.00
2023-04-16T08:23:03.906Z,94658.00
2023-04-16T08:24:03.895Z,94660.00
2023-04-16T08:25:03.938Z,94664.00
2023-04-16T08:26:03.894Z,94662.00
2023-04-16T08:27:15.422Z,94664.00
2023-04-16T08:28:04.891Z,94664.00
2023-04-16T08:29:03.907Z,94668.00
2023-04-16T08:30:03.856Z,94668.00
2023-04-16T08:31:03.904Z,94666.00
2023-04-16T08:32:03.886Z,94670.00
2023-04-16T08:33:03.894Z,94668.00
2023-04-16T08:34:03.881Z,94670.00
2023-04-16T08:35:03.834Z,94670.00
2023-04-16T08:36:03.836Z,94670.00
2023-04-16T08:37:03.827Z,94676.00
2023-04-16T08:38:03.804Z,94674.00
2023-04-16T08:39:03.816Z,94674.00
2023-04-16T08:40:03.822Z,94678.00
2023-04-16T08:41:03.824Z,94676.00
2023-04-16T08:42:03.822Z,94678.00
2023-04-16T08:43:03.774Z,94674.00
2023-04-16T08:44:03.793Z,94676.00
2023-04-16T08:45:03.803Z,94676.00
2023-04-16T08:46:03.757Z,94678.00
2023-04-16T08:47:03.860Z,94680.00
2023-04-16T08:48:03.813Z,94682.00
2023-04-16T08:49:03.795Z,94682.00
2023-04-16T08:50:03.792Z,94682.00
2023-04-16T08:51:03.766Z,94680.00
2023-04-16T08:52:03.785Z,94682.00
2023-04-16T08:53:03.806Z,94680.00
2023-04-16T08:54:03.815Z,94680.00
2023-04-16T08:55:03.814Z,94682.00
2023-04-16T08:56:03.826Z,94684.00
2023-04-16T08:57:03.858Z,94688.00
2023-04-16T08:58:03.866Z,94688.00
2023-04-16T08:59:03.902Z,94690.00
2023-04-16T09:00:03.875Z,94688.00
2023-04-16T09:01:03.962Z,94694.00
2023-04-16T09:02:04.071Z,94692.00
2023-04-16T09:03:04.100Z,94692.00
2023-04-16T09:04:04.038Z,94694.00
2023-04-16T09:05:03.916Z,94694.00
2023-04-16T09:06:03.920Z,94694.00
2023-04-16T09:07:03.937Z,94694.00
2023-04-16T09:08:03.963Z,94694.00
2023-04-16T09:09:03.969Z,94696.00
2023-04-16T09:10:03.970Z,94694.00
2023-04-16T09:11:03.982Z,94694.00
2023-04-16T09:12:03.992Z,94696.00
2023-04-16T09:13:03.999Z,94692.00
2023-04-16T09:14:03.988Z,94696.00
2023-04-16T09:15:04.023Z,94699.00
2023-04-16T09:16:04.086Z,94698.00
2023-04-16T09:17:04.013Z,94698.00
2023-04-16T09:18:04.043Z,94698.00
2023-04-16T09:19:03.996Z,94698.00
2023-04-16T09:20:04.018Z,94699.00
2023-04-16T09:21:04.060Z,94696.00
2023-04-16T09:22:04.033Z,94698.00
2023-04-16T09:23:04.023Z,94698.00
2023-04-16T09:24:04.036Z,94696.00
2023-04-16T09:25:04.062Z,94698.00
2023-04-16T09:26:04.043Z,94696.00
2023-04-16T09:27:04.071Z,94696.00
2023-04-16T09:28:04.061Z,94698.00
2023-04-16T09:29:04.076Z,94698.00
2023-04-16T09:30:04.079Z,94696.00
2023-04-16T09:31:04.070Z,94692.00
2023-04-16T09:32:04.130Z,94692.00
2023-04-16T09:33:04.095Z,94696.00
2023-04-16T09:34:04.070Z,94692.00
2023-04-16T09:35:04.049Z,94694.00
2023-04-16T09:36:04.062Z,94692.00
2023-04-16T09:37:04.093Z,94692.00
2023-04-16T09:38:04.048Z,94694.00
2023-04-16T09:39:04.102Z,94692.00
2023-04-16T09:40:04.077Z,94690.00
2023-04-16T09:41:04.057Z,94690.00
2023-04-16T09:42:04.073Z,94692.00
2023-04-16T09:43:04.039Z,94690.00
2023-04-16T09:44:04.063Z,94688.00
2023-04-16T09:45:05.677Z,94690.00
2023-04-16T09:46:08.299Z,94688.00
2023-04-16T09:47:04.105Z,94688.00
2023-04-16T09:48:04.200Z,94688.00
2023-04-16T09:49:04.117Z,94690.00
2023-04-16T09:50:04.057Z,94690.00
2023-04-16T09:51:04.031Z,94690.00
2023-04-16T09:52:04.542Z,94692.00
2023-04-16T09:53:04.020Z,94690.00
2023-04-16T09:54:04.013Z,94692.00
2023-04-16T09:55:04.007Z,94690.00
2023-04-16T09:56:04.040Z,94690.00
2023-04-16T09:57:03.987Z,94690.00
2023-04-16T09:58:03.966Z,94690.00
2023-04-16T09:59:03.978Z,94688.00
2023-04-16T10:00:04.007Z,94686.00
2023-04-16T10:01:03.999Z,94688.00
2023-04-16T10:02:15.649Z,94690.00
2023-04-16T10:03:05.075Z,94688.00
2023-04-16T10:04:04.018Z,94690.00
2023-04-16T10:05:03.940Z,94690.00
2023-04-16T10:06:03.952Z,94688.00
2023-04-16T10:07:03.926Z,94684.00
2023-04-16T10:08:03.946Z,94684.00
2023-04-16T10:09:04.007Z,94682.00
2023-04-16T10:10:03.919Z,94684.00
2023-04-16T10:11:03.883Z,94682.00
2023-04-16T10:12:03.891Z,94682.00
2023-04-16T10:13:03.873Z,94684.00
2023-04-16T10:14:03.895Z,94684.00
2023-04-16T10:15:03.872Z,94680.00
2023-04-16T10:16:03.886Z,94680.00
2023-04-16T10:17:03.868Z,94682.00
2023-04-16T10:18:03.863Z,94680.00
2023-04-16T10:19:03.836Z,94676.00
2023-04-16T10:20:03.825Z,94672.00
2023-04-16T10:21:03.870Z,94678.00
2023-04-16T10:22:03.847Z,94676.00
2023-04-16T10:23:03.811Z,94674.00
2023-04-16T10:24:03.849Z,94672.00
2023-04-16T10:25:03.823Z,94670.00
2023-04-16T10:26:03.845Z,94670.00
2023-04-16T10:27:03.827Z,94668.00
2023-04-16T10:28:03.848Z,94666.00
2023-04-16T10:29:03.824Z,94666.00
2023-04-16T10:30:03.846Z,94662.00
2023-04-16T10:31:03.862Z,94664.00
2023-04-16T10:32:03.828Z,94662.00
2023-04-16T10:33:03.904Z,94664.00
2023-04-16T10:34:03.842Z,94666.00
2023-04-16T10:35:03.847Z,94666.00
2023-04-16T10:36:07.447Z,94664.00
2023-04-16T10:37:03.883Z,94666.00
2023-04-16T10:38:03.833Z,94664.00
2023-04-16T10:39:03.834Z,94668.00
2023-04-16T10:40:03.900Z,94668.00
2023-04-16T10:41:03.835Z,94668.00
2023-04-16T10:42:03.797Z,94670.00
2023-04-16T10:43:03.803Z,94668.00
2023-04-16T10:44:03.803Z,94672.00
2023-04-16T10:45:03.801Z,94668.00
2023-04-16T10:46:03.809Z,94668.00
2023-04-16T10:47:03.793Z,94670.00
2023-04-16T10:48:03.769Z,94668.00
2023-04-16T10:49:03.788Z,94664.00
2023-04-16T10:50:03.754Z,94670.00
2023-04-16T10:51:03.745Z,94668.00
2023-04-16T10:52:03.748Z,94668.00
2023-04-16T10:53:03.743Z,94666.00
2023-04-16T10:54:04.017Z,94668.00
2023-04-16T10:55:03.713Z,94668.00
2023-04-16T10:56:03.716Z,94666.00
2023-04-16T10:57:04.396Z,94670.00
2023-04-16T10:58:03.691Z,94666.00
2023-04-16T10:59:03.719Z,94666.00
2023-04-16T11:00:03.693Z,94666.00
2023-04-16T11:01:03.694Z,94664.00
2023-04-16T11:02:03.764Z,94660.00
2023-04-16T11:03:03.819Z,94662.00
2023-04-16T11:04:03.899Z,94660.00
2023-04-16T11:05:03.817Z,94662.00
2023-04-16T11:06:03.743Z,94660.00
2023-04-16T11:07:03.659Z,94662.00
2023-04-16T11:08:03.633Z,94658.00
2023-04-16T11:09:03.646Z,94660.00
2023-04-16T11:10:03.633Z,94660.00
2023-04-16T11:11:03.622Z,94658.00
2023-04-16T11:12:03.638Z,94658.00
2023-04-16T11:13:03.614Z,94658.00
2023-04-16T11:14:03.610Z,94658.00
2023-04-16T11:15:03.595Z,94662.00
2023-04-16T11:16:03.622Z,94662.00
2023-04-16T11:17:03.591Z,94662.00
2023-04-16T11:18:03.679Z,94662.00
2023-04-16T11:19:03.557Z,94662.00
2023-04-16T11:20:03.646Z,94664.00
2023-04-16T11:21:04.542Z,94664.00
2023-04-16T11:22:03.545Z,94666.00
2023-04-16T11:23:03.528Z,94668.00
2023-04-16T11:24:03.535Z,94664.00
2023-04-16T11:25:03.518Z,94664.00
2023-04-16T11:26:03.511Z,94666.00
2023-04-16T11:27:03.500Z,94662.00
2023-04-16T11:28:03.518Z,94666.00
2023-04-16T11:29:03.495Z,94662.00
2023-04-16T11:30:03.512Z,94662.00
2023-04-16T11:31:03.499Z,94666.00
2023-04-16T11:32:03.527Z,94668.00
2023-04-16T11:33:03.560Z,94666.00
2023-04-16T11:34:03.542Z,94670.00
2023-04-16T11:35:03.545Z,94672.00
2023-04-16T11:36:03.579Z,94670.00
2023-04-16T11:37:03.535Z,94672.00
2023-04-16T11:38:03.551Z,94672.00
2023-04-16T11:39:03.646Z,94672.00
2023-04-16T11:40:03.589Z,94672.00
2023-04-16T11:41:03.568Z,94670.00
2023-04-16T11:42:03.651Z,94670.00
2023-04-16T11:43:03.557Z,94680.00
2023-04-16T11:44:03.615Z,94676.00
2023-04-16T11:45:03.554Z,94674.00